Monroe, North Carolina
Current Conditions -  °F | °C
As of 7:53 PM on Tuesday 25 Nov 2014 (Local Time) from KEQY Reporting Station
Light Rain Light Rain  
Wind Chill: 53°   Ceiling: 9500
Heat Index: 53°   Visibility: 10mi
Dew Point: 45°   Wind: 7mph
Humidity: 74%   Direction: 50°NE
Pressure: 30.05"   Gusts: NA
Location:  34.98°N, 80.55°W
Report Text: KEQY 260053Z AUTO 05006KT 10SM -RA SCT080 OVC095 12/07 A3005 RMK AO2 RAE02B27 SLP186 P0001 T01170072
Loading
Personal Weather Stations






























Interactive Weather Map New forecast layout! Learn more

10-Day Weather Forecast

Advertisements
Track Severe Weather on mobile